Time;durP1;ratioP1;P1;durP2;ratioP2;P2;SDS_P1;SDS_P2;PMS_P1;PMS_P2;Temp;Humidity;BMP_temperature;BMP_pressure;BME280_temperature;BME280_humidity;BME280_pressure;Samples;Min_cycle;Max_cycle;Signal;HPM_P1;HPM_P2
2021/10/09 00:01:05;;;;;;;;;27.33;24.00;;;;;;;;5119034;27;8791;-77
2021/10/09 00:03:30;;;;;;;;;24.67;22.67;;;;;;;;5118600;27;8857;-78
2021/10/09 00:05:55;;;;;;;;;23.33;22.00;;;;;;;;5118842;27;8821;-78
2021/10/09 00:08:21;;;;;;;;;25.00;23.33;;;;;;;;5118548;27;8786;-78
2021/10/09 00:10:46;;;;;;;;;22.67;20.33;;;;;;;;5121005;27;8791;-79
2021/10/09 00:13:12;;;;;;;;;21.67;21.00;;;;;;;;5120043;27;8818;-78
2021/10/09 00:15:37;;;;;;;;;25.00;24.00;;;;;;;;5118506;27;8783;-77
2021/10/09 00:18:03;;;;;;;;;21.33;20.33;;;;;;;;5118629;27;8869;-78
2021/10/09 00:20:29;;;;;;;;;22.33;21.00;;;;;;;;5118527;27;8775;-77
2021/10/09 00:22:54;;;;;;;;;22.67;22.00;;;;;;;;5116891;28;8797;-78
2021/10/09 00:25:20;;;;;;;;;24.67;22.67;;;;;;;;5117071;27;8885;-78
2021/10/09 00:27:46;;;;;;;;;24.33;21.67;;;;;;;;5117498;27;8876;-78
2021/10/09 00:30:11;;;;;;;;;21.67;21.67;;;;;;;;5132952;27;8886;-78
2021/10/09 00:32:36;;;;;;;;;22.33;22.33;;;;;;;;5157655;27;8806;-78
2021/10/09 00:35:01;;;;;;;;;23.67;23.67;;;;;;;;5159486;27;8782;-78
2021/10/09 00:37:27;;;;;;;;;18.67;18.67;;;;;;;;5159167;27;8786;-78
2021/10/09 00:39:52;;;;;;;;;23.33;23.00;;;;;;;;5159491;27;8840;-78
2021/10/09 00:42:17;;;;;;;;;21.67;21.00;;;;;;;;5158972;27;8778;-78
2021/10/09 00:44:42;;;;;;;;;22.67;21.67;;;;;;;;5159086;27;8841;-78
2021/10/09 00:47:08;;;;;;;;;24.67;21.00;;;;;;;;5159089;27;8786;-78
2021/10/09 00:49:34;;;;;;;;;21.67;20.67;;;;;;;;5159093;27;8949;-78
2021/10/09 00:52:01;;;;;;;;;25.00;24.00;;;;;;;;5159118;27;8766;-78
2021/10/09 00:54:28;;;;;;;;;22.25;21.50;;;;;;;;5159087;27;8921;-78
2021/10/09 00:56:56;;;;;;;;;21.67;21.67;;;;;;;;5157205;27;8782;-78
2021/10/09 00:59:24;;;;;;;;;23.50;22.75;;;;;;;;5158829;27;8949;-78
2021/10/09 01:01:50;;;;;;;;;23.50;21.25;;;;;;;;5159010;27;8758;-78
2021/10/09 01:04:17;;;;;;;;;18.00;18.00;;;;;;;;5159617;27;8798;-77
2021/10/09 01:06:42;;;;;;;;;20.75;19.75;;;;;;;;5157265;27;11480;-78
2021/10/09 01:09:07;;;;;;;;;22.67;22.67;;;;;;;;5157334;27;8789;-78
2021/10/09 01:11:33;;;;;;;;;24.67;24.33;;;;;;;;5158581;27;8766;-78
2021/10/09 01:13:58;;;;;;;;;23.67;23.67;;;;;;;;5157031;27;8837;-78
2021/10/09 01:16:24;;;;;;;;;24.00;22.00;;;;;;;;5158456;27;8872;-78
2021/10/09 01:18:51;;;;;;;;;25.00;22.75;;;;;;;;5158977;27;8778;-78
2021/10/09 01:21:16;;;;;;;;;24.00;22.50;;;;;;;;5158455;27;8838;-78
2021/10/09 01:23:41;;;;;;;;;22.00;21.33;;;;;;;;5159026;27;8818;-77
2021/10/09 01:26:07;;;;;;;;;27.67;25.67;;;;;;;;5158194;27;8801;-78
2021/10/09 01:28:32;;;;;;;;;23.00;20.33;;;;;;;;5158621;27;9565;-78
2021/10/09 01:30:57;;;;;;;;;24.00;21.33;;;;;;;;5142582;27;8825;-78
2021/10/09 01:33:23;;;;;;;;;23.00;20.67;;;;;;;;5136130;27;8797;-78
2021/10/09 01:35:50;;;;;;;;;24.00;22.00;;;;;;;;5138295;27;8796;-78
2021/10/09 01:38:16;;;;;;;;;20.25;18.75;;;;;;;;5135338;27;8798;-78
2021/10/09 01:40:41;;;;;;;;;20.50;20.00;;;;;;;;5137392;27;8760;-78
2021/10/09 01:43:11;;;;;;;;;19.67;19.67;;;;;;;;5137298;27;8835;-78
2021/10/09 01:45:36;;;;;;;;;19.75;18.00;;;;;;;;5137420;27;8842;-78
2021/10/09 01:48:01;;;;;;;;;26.33;25.67;;;;;;;;5136238;27;8823;-78
2021/10/09 01:50:27;;;;;;;;;25.67;24.33;;;;;;;;5136078;27;8857;-78
2021/10/09 01:52:52;;;;;;;;;25.00;23.33;;;;;;;;5137639;27;9558;-78
2021/10/09 01:55:17;;;;;;;;;24.00;23.00;;;;;;;;5138492;27;8807;-78
2021/10/09 01:57:42;;;;;;;;;18.67;17.00;;;;;;;;5137808;27;8776;-78
2021/10/09 02:00:08;;;;;;;;;24.00;23.33;;;;;;;;5138962;27;8830;-79
2021/10/09 02:02:33;;;;;;;;;24.00;22.67;;;;;;;;5139018;27;8785;-78
2021/10/09 02:04:58;;;;;;;;;24.00;22.33;;;;;;;;5138585;27;8804;-77
2021/10/09 02:07:25;;;;;;;;;21.00;20.67;;;;;;;;5138323;27;9167;-77
2021/10/09 02:09:50;;;;;;;;;20.25;19.00;;;;;;;;5138888;27;8768;-78
2021/10/09 02:12:15;;;;;;;;;21.33;19.67;;;;;;;;5135984;27;8818;-78
2021/10/09 02:14:49;;;;;;;;;24.00;23.33;;;;;;;;5137721;27;8796;-78
2021/10/09 02:25:47;;;;;;;;;28.33;27.00;;;;;;;;5138542;27;9076;-78
2021/10/09 02:28:15;;;;;;;;;22.75;22.75;;;;;;;;5138184;27;8933;-78
2021/10/09 02:30:41;;;;;;;;;23.00;18.50;;;;;;;;5150558;27;8810;-78
2021/10/09 02:33:06;;;;;;;;;25.00;24.00;;;;;;;;5162605;27;8786;-78
2021/10/09 02:35:32;;;;;;;;;27.00;26.00;;;;;;;;5160243;27;8782;-78
2021/10/09 02:37:58;;;;;;;;;25.67;24.67;;;;;;;;5158577;27;9578;-78
2021/10/09 02:40:24;;;;;;;;;24.33;23.33;;;;;;;;5160168;27;11432;-79
2021/10/09 02:42:49;;;;;;;;;24.33;23.67;;;;;;;;5160736;27;10516;-78
2021/10/09 02:45:14;;;;;;;;;21.00;19.33;;;;;;;;5159703;27;8785;-78
2021/10/09 02:47:40;;;;;;;;;23.67;21.00;;;;;;;;5159837;27;8874;-78
2021/10/09 02:50:10;;;;;;;;;21.67;21.67;;;;;;;;5164408;27;8822;-78
2021/10/09 02:52:36;;;;;;;;;21.67;21.33;;;;;;;;5164023;27;8801;-78
2021/10/09 02:55:01;;;;;;;;;24.33;23.33;;;;;;;;5164660;27;9719;-77
2021/10/09 02:57:26;;;;;;;;;27.67;24.67;;;;;;;;5163466;27;9089;-78
2021/10/09 02:59:51;;;;;;;;;25.67;24.00;;;;;;;;5162373;27;8847;-78
2021/10/09 03:02:17;;;;;;;;;24.67;22.67;;;;;;;;5162802;27;8801;-78
2021/10/09 03:04:42;;;;;;;;;24.00;23.00;;;;;;;;5163444;27;8898;-77
2021/10/09 03:07:07;;;;;;;;;26.00;25.00;;;;;;;;5165054;27;8762;-78
2021/10/09 03:09:32;;;;;;;;;22.00;22.00;;;;;;;;5165405;27;8774;-78
2021/10/09 03:11:57;;;;;;;;;27.33;26.33;;;;;;;;5163811;27;8788;-78
2021/10/09 03:14:24;;;;;;;;;25.67;25.67;;;;;;;;5165458;27;8809;-78
2021/10/09 03:16:49;;;;;;;;;22.67;21.33;;;;;;;;5167871;27;8703;-77
2021/10/09 03:19:15;;;;;;;;;25.00;20.00;;;;;;;;5167006;27;9008;-78
2021/10/09 03:21:40;;;;;;;;;27.33;26.33;;;;;;;;5165887;27;8817;-78
2021/10/09 03:24:05;;;;;;;;;26.67;26.67;;;;;;;;5165773;27;8805;-78
2021/10/09 03:26:30;;;;;;;;;27.67;25.00;;;;;;;;5163159;27;8789;-78
2021/10/09 03:28:56;;;;;;;;;26.67;26.67;;;;;;;;5163055;27;8798;-78
2021/10/09 03:31:21;;;;;;;;;28.67;27.00;;;;;;;;5148285;27;8835;-78
2021/10/09 03:33:46;;;;;;;;;24.33;24.00;;;;;;;;5147362;27;8804;-78
2021/10/09 03:36:11;;;;;;;;;23.67;23.67;;;;;;;;5146003;27;8815;-78
2021/10/09 03:38:38;;;;;;;;;28.33;27.33;;;;;;;;5146003;27;8927;-78
2021/10/09 03:41:08;;;;;;;;;26.00;23.67;;;;;;;;5147458;27;8768;-78
2021/10/09 03:43:33;;;;;;;;;30.67;27.33;;;;;;;;5149642;27;8923;-78
2021/10/09 03:46:13;;;;;;;;;26.00;25.00;;;;;;;;5145675;27;9037;-78
2021/10/09 03:53:32;;;;;;;;;27.00;25.33;;;;;;;;5144192;27;8788;-78
2021/10/09 03:55:57;;;;;;;;;26.00;25.33;;;;;;;;5144568;27;9100;-78
2021/10/09 03:58:22;;;;;;;;;29.00;27.67;;;;;;;;5142402;27;8810;-78
2021/10/09 04:00:48;;;;;;;;;33.33;30.00;;;;;;;;5144720;27;8784;-77
2021/10/09 04:03:13;;;;;;;;;29.00;26.33;;;;;;;;5143416;27;8801;-78
2021/10/09 04:05:38;;;;;;;;;24.33;24.33;;;;;;;;5144499;27;8831;-77
2021/10/09 04:08:07;;;;;;;;;25.00;24.00;;;;;;;;5144591;27;8792;-78
2021/10/09 04:10:36;;;;;;;;;31.33;28.33;;;;;;;;5144541;27;8774;-78
2021/10/09 04:13:02;;;;;;;;;28.33;26.33;;;;;;;;5144778;27;9012;-78
2021/10/09 04:15:27;;;;;;;;;29.00;27.67;;;;;;;;5141596;27;8888;-78
2021/10/09 04:17:52;;;;;;;;;34.33;31.33;;;;;;;;5142642;27;8810;-78
2021/10/09 04:20:17;;;;;;;;;31.00;29.67;;;;;;;;5142263;27;8856;-77
2021/10/09 04:22:43;;;;;;;;;32.00;30.00;;;;;;;;5142395;27;8898;-78
2021/10/09 04:25:08;;;;;;;;;31.67;30.67;;;;;;;;5139849;27;8843;-79
2021/10/09 04:27:33;;;;;;;;;36.67;30.33;;;;;;;;5138778;27;8756;-78
2021/10/09 04:29:59;;;;;;;;;26.33;26.33;;;;;;;;5145888;27;8794;-78
2021/10/09 04:32:24;;;;;;;;;31.33;30.00;;;;;;;;5158105;27;8809;-78
2021/10/09 04:34:49;;;;;;;;;34.33;30.00;;;;;;;;5158572;27;8804;-78
2021/10/09 04:37:14;;;;;;;;;36.67;33.00;;;;;;;;5158922;27;9079;-78
2021/10/09 04:39:40;;;;;;;;;31.33;28.67;;;;;;;;5161011;27;8781;-77
2021/10/09 04:42:06;;;;;;;;;28.67;28.67;;;;;;;;5159695;27;8813;-78
2021/10/09 04:44:32;;;;;;;;;26.67;26.67;;;;;;;;5159644;27;8809;-78
2021/10/09 04:46:57;;;;;;;;;34.33;31.00;;;;;;;;5159176;27;9111;-78
2021/10/09 04:49:22;;;;;;;;;26.67;25.33;;;;;;;;5157363;27;8798;-78
2021/10/09 04:51:48;;;;;;;;;34.33;31.33;;;;;;;;5159231;27;8777;-78
2021/10/09 04:54:13;;;;;;;;;33.00;29.33;;;;;;;;5159095;27;8774;-78
2021/10/09 04:56:38;;;;;;;;;34.50;32.50;;;;;;;;5157451;27;9449;-78
2021/10/09 04:59:04;;;;;;;;;36.67;32.00;;;;;;;;5157440;27;8802;-78
2021/10/09 05:01:29;;;;;;;;;33.33;30.67;;;;;;;;5158965;27;8900;-78
2021/10/09 05:03:54;;;;;;;;;29.67;29.67;;;;;;;;5157376;27;8923;-78
2021/10/09 05:06:19;;;;;;;;;33.67;30.00;;;;;;;;5157339;27;8813;-78
2021/10/09 05:08:44;;;;;;;;;33.00;29.33;;;;;;;;5158772;27;8820;-77
2021/10/09 05:11:10;;;;;;;;;34.67;31.33;;;;;;;;5158413;27;8898;-78
2021/10/09 05:13:35;;;;;;;;;31.33;29.67;;;;;;;;5158216;27;8801;-78
2021/10/09 05:16:00;;;;;;;;;36.33;32.67;;;;;;;;5158995;27;8894;-78
2021/10/09 05:18:26;;;;;;;;;40.00;32.00;;;;;;;;5159277;27;9545;-78
2021/10/09 05:20:51;;;;;;;;;34.67;32.00;;;;;;;;5158516;27;8859;-78
2021/10/09 05:23:16;;;;;;;;;35.67;32.67;;;;;;;;5158623;27;8902;-79
2021/10/09 05:25:43;;;;;;;;;35.33;31.00;;;;;;;;5158552;27;8855;-78
2021/10/09 05:28:13;;;;;;;;;34.67;32.67;;;;;;;;5160457;27;8812;-78
2021/10/09 05:30:46;;;;;;;;;38.33;32.33;;;;;;;;5147149;27;9326;-79
2021/10/09 05:35:54;;;;;;;;;34.33;32.00;;;;;;;;5149193;27;9152;-79
2021/10/09 05:38:20;;;;;;;;;33.67;31.00;;;;;;;;5145268;27;9259;-80
2021/10/09 05:40:47;;;;;;;;;39.67;34.33;;;;;;;;5150445;27;8832;-80
2021/10/09 05:43:12;;;;;;;;;33.00;30.33;;;;;;;;5151282;27;8737;-80
2021/10/09 05:45:37;;;;;;;;;37.67;33.33;;;;;;;;5147782;27;9271;-80
2021/10/09 05:48:03;;;;;;;;;30.00;29.00;;;;;;;;5139962;27;8857;-77
2021/10/09 05:50:34;;;;;;;;;37.00;32.33;;;;;;;;5138955;27;8789;-77
2021/10/09 05:55:45;;;;;;;;;31.33;30.00;;;;;;;;5142878;27;9319;-80
2021/10/09 06:31:22;;;;;;;;;41.50;35.00;;;;;;;;5156344;27;9611;-81
2021/10/09 07:00:40;;;;;;;;;38.67;32.67;;;;;;;;5125627;28;10401;-82
2021/10/09 07:03:05;;;;;;;;;39.75;35.25;;;;;;;;5121245;27;9594;-84
2021/10/09 07:05:33;;;;;;;;;37.33;32.67;;;;;;;;5127370;27;8852;-84
2021/10/09 07:08:05;;;;;;;;;46.25;35.25;;;;;;;;5129128;27;8836;-81
2021/10/09 07:10:30;;;;;;;;;43.25;36.25;;;;;;;;5133413;27;9757;-84
2021/10/09 07:12:55;;;;;;;;;40.25;35.25;;;;;;;;5142424;27;9851;-81
2021/10/09 07:15:20;;;;;;;;;45.00;36.00;;;;;;;;5134151;27;8795;-83
2021/10/09 07:17:46;;;;;;;;;46.25;38.25;;;;;;;;5141484;27;9675;-82
2021/10/09 07:20:12;;;;;;;;;38.00;35.00;;;;;;;;5150598;27;8833;-84
2021/10/09 07:22:37;;;;;;;;;45.25;36.75;;;;;;;;5142057;27;8726;-83
2021/10/09 07:25:02;;;;;;;;;39.00;33.75;;;;;;;;5139715;27;9734;-84
2021/10/09 07:27:28;;;;;;;;;41.00;36.00;;;;;;;;5140066;27;8862;-81
2021/10/09 07:29:53;;;;;;;;;37.67;33.33;;;;;;;;5138611;27;8910;-83
2021/10/09 07:32:18;;;;;;;;;36.33;33.00;;;;;;;;5135921;27;8837;-79
2021/10/09 07:34:44;;;;;;;;;40.75;35.50;;;;;;;;5135287;27;8832;-80
2021/10/09 07:37:09;;;;;;;;;39.00;35.25;;;;;;;;5131098;27;9264;-84
2021/10/09 07:39:35;;;;;;;;;47.25;38.50;;;;;;;;5130338;27;8869;-82
2021/10/09 07:42:00;;;;;;;;;44.00;35.00;;;;;;;;5131147;27;8799;-82
2021/10/09 07:44:26;;;;;;;;;46.00;39.00;;;;;;;;5142617;27;8765;-78
2021/10/09 07:46:51;;;;;;;;;40.75;35.75;;;;;;;;5148879;27;8795;-81
2021/10/09 07:49:17;;;;;;;;;40.67;35.00;;;;;;;;5144685;27;8915;-82
2021/10/09 07:51:42;;;;;;;;;43.50;36.50;;;;;;;;5143455;27;8884;-81
2021/10/09 07:54:07;;;;;;;;;45.25;37.00;;;;;;;;5131808;27;8806;-81
2021/10/09 07:56:32;;;;;;;;;44.50;36.00;;;;;;;;5130171;27;8894;-82
2021/10/09 07:58:58;;;;;;;;;43.25;36.25;;;;;;;;5131225;27;8877;-80
2021/10/09 08:01:23;;;;;;;;;44.67;36.67;;;;;;;;5139290;27;8857;-81
2021/10/09 08:03:48;;;;;;;;;40.75;34.75;;;;;;;;5137266;27;8824;-80
2021/10/09 08:06:13;;;;;;;;;43.50;36.75;;;;;;;;5124352;27;8811;-80
2021/10/09 08:08:39;;;;;;;;;47.25;40.00;;;;;;;;5128195;27;8818;-82
2021/10/09 08:11:04;;;;;;;;;46.75;38.50;;;;;;;;5130222;27;8865;-79
2021/10/09 08:13:30;;;;;;;;;44.50;38.25;;;;;;;;5134975;27;8921;-80
2021/10/09 08:15:55;;;;;;;;;46.75;38.50;;;;;;;;5121494;27;8909;-79
2021/10/09 08:18:21;;;;;;;;;42.67;36.33;;;;;;;;5129197;27;8767;-82
2021/10/09 08:20:50;;;;;;;;;43.25;36.75;;;;;;;;5146116;27;8767;-82
2021/10/09 08:23:20;;;;;;;;;40.00;34.25;;;;;;;;5156531;27;9757;-82
2021/10/09 08:36:37;;;;;;;;;44.00;37.75;;;;;;;;5124679;27;9816;-79
2021/10/09 08:39:03;;;;;;;;;43.50;37.25;;;;;;;;5132984;27;9921;-79
2021/10/09 08:41:28;;;;;;;;;47.00;39.00;;;;;;;;5127294;27;9818;-80
2021/10/09 08:43:54;;;;;;;;;45.75;36.50;;;;;;;;5117946;27;8830;-79
2021/10/09 08:46:20;;;;;;;;;46.75;37.25;;;;;;;;5116969;27;8811;-80
2021/10/09 08:48:49;;;;;;;;;45.25;37.25;;;;;;;;5123329;27;8819;-83
2021/10/09 08:51:21;;;;;;;;;46.25;39.00;;;;;;;;5135497;27;8724;-82
2021/10/09 08:53:46;;;;;;;;;49.25;41.00;;;;;;;;5138231;27;10675;-82
2021/10/09 08:56:26;;;;;;;;;47.00;39.00;;;;;;;;5136935;27;9616;-80
2021/10/09 08:59:04;;;;;;;;;45.50;37.50;;;;;;;;5131420;27;8744;-80
2021/10/09 09:01:36;;;;;;;;;44.00;37.50;;;;;;;;5134669;27;9630;-79
2021/10/09 09:37:16;;;;;;;;;44.00;37.50;;;;;;;;5138574;27;9745;-82
2021/10/09 09:39:45;;;;;;;;;45.50;38.50;;;;;;;;5133604;27;9665;-80
2021/10/09 09:42:11;;;;;;;;;46.25;39.75;;;;;;;;5121281;27;9837;-81
2021/10/09 09:44:51;;;;;;;;;41.00;35.67;;;;;;;;5120666;27;9856;-81
2021/10/09 09:47:16;;;;;;;;;36.75;31.75;;;;;;;;5119905;27;8795;-82
2021/10/09 09:49:42;;;;;;;;;39.67;35.00;;;;;;;;5132396;27;9743;-80
2021/10/09 09:52:07;;;;;;;;;47.33;37.67;;;;;;;;5122893;27;8816;-80
2021/10/09 09:54:32;;;;;;;;;43.67;36.67;;;;;;;;5119645;27;8814;-85
2021/10/09 09:56:59;;;;;;;;;45.00;37.33;;;;;;;;5130154;27;8918;-84
2021/10/09 09:59:33;;;;;;;;;43.33;37.00;;;;;;;;5121500;27;8765;-85
2021/10/09 10:02:05;;;;;;;;;42.67;35.33;;;;;;;;5125444;27;10331;-79
2021/10/09 10:04:31;;;;;;;;;40.33;35.33;;;;;;;;5131490;27;9223;-82
2021/10/09 10:07:00;;;;;;;;;44.00;37.00;;;;;;;;5142772;27;9111;-81
2021/10/09 10:09:28;;;;;;;;;42.33;36.33;;;;;;;;5128448;27;9190;-80
2021/10/09 10:11:56;;;;;;;;;40.33;34.33;;;;;;;;5121605;27;9279;-79
2021/10/09 10:14:21;;;;;;;;;44.00;37.00;;;;;;;;5122114;27;9355;-79
2021/10/09 10:16:48;;;;;;;;;45.33;36.33;;;;;;;;5125457;27;9406;-80
2021/10/09 10:19:13;;;;;;;;;39.67;35.33;;;;;;;;5129188;27;8821;-78
2021/10/09 10:21:40;;;;;;;;;42.33;32.00;;;;;;;;5132216;27;9434;-79
2021/10/09 10:24:09;;;;;;;;;35.67;32.33;;;;;;;;5126461;27;8767;-79
2021/10/09 10:26:34;;;;;;;;;40.00;35.00;;;;;;;;5123692;27;9274;-83
2021/10/09 10:29:00;;;;;;;;;39.33;33.67;;;;;;;;5122216;27;9443;-84
2021/10/09 10:31:26;;;;;;;;;37.00;33.33;;;;;;;;5137582;27;8812;-80
2021/10/09 10:33:59;;;;;;;;;37.33;33.67;;;;;;;;5124971;27;8795;-82
2021/10/09 10:36:54;;;;;;;;;37.33;32.67;;;;;;;;5129302;27;9139;-81
2021/10/09 10:39:26;;;;;;;;;37.00;33.33;;;;;;;;5136608;27;9267;-80
2021/10/09 10:42:04;;;;;;;;;37.67;33.00;;;;;;;;5120248;27;9239;-81
2021/10/09 10:44:59;;;;;;;;;31.00;28.00;;;;;;;;5128424;27;9104;-77
2021/10/09 10:47:37;;;;;;;;;32.33;31.00;;;;;;;;5124565;27;8992;-79
2021/10/09 10:50:09;;;;;;;;;37.67;32.33;;;;;;;;5123279;27;9179;-78
2021/10/09 10:52:58;;;;;;;;;37.00;32.00;;;;;;;;5130900;27;8884;-79
2021/10/09 10:55:24;;;;;;;;;35.33;31.67;;;;;;;;5119283;27;9105;-79
2021/10/09 10:58:15;;;;;;;;;35.00;32.00;;;;;;;;5127972;27;9169;-83
2021/10/09 11:00:40;;;;;;;;;30.67;29.67;;;;;;;;5125379;27;8898;-82
2021/10/09 11:03:10;;;;;;;;;37.67;33.67;;;;;;;;5120646;27;9121;-84
2021/10/09 11:05:36;;;;;;;;;33.25;30.50;;;;;;;;5130018;27;8791;-80
2021/10/09 11:08:05;;;;;;;;;36.67;31.67;;;;;;;;5131293;27;8813;-80
2021/10/09 11:10:30;;;;;;;;;37.33;32.00;;;;;;;;5125991;27;8917;-78
2021/10/09 11:12:55;;;;;;;;;39.67;33.67;;;;;;;;5131222;27;9049;-78
2021/10/09 11:15:28;;;;;;;;;39.67;33.67;;;;;;;;5131529;27;8823;-81
2021/10/09 11:18:00;;;;;;;;;33.50;31.00;;;;;;;;5133274;27;8920;-81
2021/10/09 11:20:41;;;;;;;;;33.75;30.50;;;;;;;;5121723;27;8791;-79
2021/10/09 11:23:08;;;;;;;;;35.33;32.00;;;;;;;;5118156;27;8815;-81
2021/10/09 11:25:35;;;;;;;;;34.50;30.50;;;;;;;;5119484;27;9074;-80
2021/10/09 11:28:05;;;;;;;;;40.67;33.00;;;;;;;;5123079;27;8791;-79
2021/10/09 11:30:31;;;;;;;;;36.67;31.00;;;;;;;;5126529;27;9014;-78
2021/10/09 11:32:57;;;;;;;;;33.25;30.50;;;;;;;;5127508;27;8889;-78
2021/10/09 11:35:30;;;;;;;;;33.25;30.75;;;;;;;;5128584;27;8745;-79
2021/10/09 11:37:56;;;;;;;;;34.00;30.75;;;;;;;;5128836;27;8771;-80
2021/10/09 11:40:28;;;;;;;;;33.25;30.25;;;;;;;;5134146;27;8780;-80
2021/10/09 11:42:57;;;;;;;;;36.00;31.00;;;;;;;;5132262;27;8898;-80
2021/10/09 11:56:02;;;;;;;;;28.50;26.25;;;;;;;;5133562;27;9104;-77
2021/10/09 11:58:29;;;;;;;;;34.00;30.25;;;;;;;;5131659;27;8755;-84
2021/10/09 12:01:32;;;;;;;;;31.50;30.50;;;;;;;;5124475;27;8789;-80
2021/10/09 12:04:11;;;;;;;;;35.50;29.75;;;;;;;;5136969;27;8807;-81
2021/10/09 12:06:40;;;;;;;;;31.00;29.75;;;;;;;;5130622;27;8764;-80
2021/10/09 12:09:07;;;;;;;;;30.00;29.00;;;;;;;;5125036;27;8775;-79
2021/10/09 12:11:32;;;;;;;;;27.25;26.50;;;;;;;;5137523;27;8761;-82
2021/10/09 12:14:04;;;;;;;;;32.33;29.33;;;;;;;;5140184;27;8836;-82
2021/10/09 12:16:31;;;;;;;;;31.75;30.25;;;;;;;;5144079;27;8808;-80
2021/10/09 12:19:05;;;;;;;;;30.75;29.75;;;;;;;;5138355;27;8786;-78
2021/10/09 12:21:34;;;;;;;;;30.33;30.00;;;;;;;;5144762;27;8839;-79
2021/10/09 12:24:10;;;;;;;;;34.50;30.25;;;;;;;;5148774;27;9770;-81
2021/10/09 12:26:36;;;;;;;;;28.50;27.25;;;;;;;;5143062;27;8829;-83
2021/10/09 12:29:04;;;;;;;;;28.33;27.00;;;;;;;;5148252;27;8835;-78
2021/10/09 12:31:30;;;;;;;;;28.50;26.50;;;;;;;;5140134;27;8838;-79
2021/10/09 12:33:56;;;;;;;;;1.50;1.50;;;;;;;;5138960;27;8808;-82
2021/10/09 12:38:57;;;;;;;;;33.50;30.50;;;;;;;;5145859;27;8748;-80
2021/10/09 12:41:23;;;;;;;;;27.50;26.50;;;;;;;;5136547;27;8823;-78
2021/10/09 12:43:51;;;;;;;;;28.00;26.33;;;;;;;;5132544;27;8839;-78
2021/10/09 12:46:16;;;;;;;;;26.75;26.75;;;;;;;;5127570;27;8747;-78
2021/10/09 12:48:42;;;;;;;;;31.33;30.00;;;;;;;;5134813;27;8813;-79
2021/10/09 12:51:13;;;;;;;;;30.33;29.33;;;;;;;;5129623;27;9530;-79
2021/10/09 12:53:39;;;;;;;;;31.75;28.75;;;;;;;;5135602;27;8755;-79
2021/10/09 12:56:04;;;;;;;;;30.67;28.00;;;;;;;;5133765;27;8957;-78
2021/10/09 12:58:29;;;;;;;;;31.67;29.67;;;;;;;;5133472;27;9625;-79
2021/10/09 13:00:55;;;;;;;;;31.00;29.33;;;;;;;;5131192;27;9071;-79
2021/10/09 13:03:20;;;;;;;;;30.33;27.00;;;;;;;;5131391;27;8783;-79
2021/10/09 13:05:54;;;;;;;;;31.67;29.33;;;;;;;;5136355;27;8822;-80
2021/10/09 13:08:19;;;;;;;;;30.75;30.00;;;;;;;;5142660;27;8787;-79
2021/10/09 13:10:48;;;;;;;;;29.67;27.33;;;;;;;;5138756;27;8810;-78
2021/10/09 13:13:13;;;;;;;;;28.25;25.50;;;;;;;;5131614;27;8774;-79
2021/10/09 13:15:42;;;;;;;;;29.33;28.33;;;;;;;;5135158;27;9245;-79
2021/10/09 13:18:07;;;;;;;;;25.75;24.50;;;;;;;;5138309;27;8812;-79
2021/10/09 13:20:36;;;;;;;;;27.67;25.67;;;;;;;;5136280;27;8831;-81
2021/10/09 13:23:03;;;;;;;;;26.25;25.25;;;;;;;;5134155;27;8801;-79
2021/10/09 13:25:29;;;;;;;;;27.25;25.50;;;;;;;;5137969;27;8749;-79
2021/10/09 13:27:57;;;;;;;;;30.25;28.50;;;;;;;;5145029;27;8853;-81
2021/10/09 13:30:26;;;;;;;;;25.25;24.00;;;;;;;;5139817;27;8789;-80
2021/10/09 13:32:51;;;;;;;;;23.75;23.50;;;;;;;;5135848;27;8783;-80
2021/10/09 13:35:16;;;;;;;;;29.33;28.33;;;;;;;;5141655;27;8800;-79
2021/10/09 13:37:53;;;;;;;;;23.67;22.00;;;;;;;;5132169;27;8828;-81
2021/10/09 13:40:18;;;;;;;;;24.25;23.25;;;;;;;;5137457;27;8819;-82
2021/10/09 13:42:43;;;;;;;;;27.00;26.00;;;;;;;;5128505;27;8834;-77
2021/10/09 13:45:09;;;;;;;;;26.67;24.67;;;;;;;;5126288;27;8830;-78
2021/10/09 13:47:34;;;;;;;;;25.67;25.33;;;;;;;;5127627;27;8823;-79
2021/10/09 13:50:00;;;;;;;;;25.00;25.00;;;;;;;;5124741;27;8899;-84
2021/10/09 13:52:25;;;;;;;;;25.67;25.67;;;;;;;;5123534;27;8925;-80
2021/10/09 13:54:50;;;;;;;;;24.33;24.33;;;;;;;;5123929;27;8888;-80
2021/10/09 13:57:16;;;;;;;;;22.67;21.33;;;;;;;;5127110;27;8921;-78
2021/10/09 13:59:41;;;;;;;;;24.00;24.00;;;;;;;;5133085;27;8803;-81
2021/10/09 14:02:06;;;;;;;;;24.00;22.50;;;;;;;;5135309;27;8859;-79
2021/10/09 14:04:37;;;;;;;;;21.67;19.67;;;;;;;;5123846;27;8838;-78
2021/10/09 14:07:02;;;;;;;;;22.00;22.00;;;;;;;;5130654;27;8744;-81
2021/10/09 14:09:28;;;;;;;;;21.67;21.00;;;;;;;;5128087;27;8822;-79
2021/10/09 14:11:54;;;;;;;;;22.00;20.33;;;;;;;;5129391;27;8868;-79
2021/10/09 14:14:20;;;;;;;;;23.00;22.67;;;;;;;;5128773;27;8920;-77
2021/10/09 14:16:45;;;;;;;;;21.25;21.25;;;;;;;;5138794;27;11498;-78
2021/10/09 14:19:10;;;;;;;;;23.00;23.00;;;;;;;;5139327;27;8848;-83
2021/10/09 14:21:36;;;;;;;;;26.00;24.67;;;;;;;;5118051;27;9510;-81
2021/10/09 14:24:01;;;;;;;;;24.33;23.00;;;;;;;;5123519;27;8823;-79
2021/10/09 14:26:26;;;;;;;;;29.00;25.67;;;;;;;;5126387;27;8883;-79
2021/10/09 14:28:51;;;;;;;;;22.00;22.00;;;;;;;;5125047;27;8802;-80
2021/10/09 14:31:17;;;;;;;;;23.00;23.00;;;;;;;;5162107;27;8723;-80
2021/10/09 14:33:42;;;;;;;;;28.67;27.00;;;;;;;;5169029;27;8793;-81
2021/10/09 14:36:07;;;;;;;;;22.00;20.33;;;;;;;;5139133;27;8820;-80
2021/10/09 14:38:32;;;;;;;;;26.33;24.33;;;;;;;;5137010;27;9274;-80
2021/10/09 14:40:59;;;;;;;;;26.67;26.00;;;;;;;;5133640;27;8820;-81
2021/10/09 14:43:25;;;;;;;;;24.50;24.50;;;;;;;;5138406;27;8804;-92
2021/10/09 14:45:54;;;;;;;;;26.00;26.00;;;;;;;;5143298;27;8796;-83
2021/10/09 14:48:26;;;;;;;;;27.50;26.00;;;;;;;;5141600;27;8799;-81
2021/10/09 15:20:09;;;;;;;;;23.50;22.75;;;;;;;;5119642;27;8915;-82
2021/10/09 15:22:34;;;;;;;;;21.67;21.00;;;;;;;;5117900;28;8799;-83
2021/10/09 15:25:00;;;;;;;;;25.00;24.00;;;;;;;;5121813;27;8851;-86
2021/10/09 15:27:28;;;;;;;;;22.75;22.75;;;;;;;;5135379;27;8873;-85
2021/10/09 15:29:54;;;;;;;;;24.50;21.00;;;;;;;;5143825;27;8809;-83
2021/10/09 15:32:19;;;;;;;;;27.67;27.00;;;;;;;;5118621;27;8818;-81
2021/10/09 15:34:44;;;;;;;;;21.67;21.00;;;;;;;;5119949;27;8840;-80
2021/10/09 15:37:10;;;;;;;;;25.00;23.67;;;;;;;;5117911;28;9833;-88
2021/10/09 15:39:36;;;;;;;;;20.67;20.67;;;;;;;;5118830;27;8807;-85
2021/10/09 15:42:04;;;;;;;;;25.67;23.33;;;;;;;;5118220;27;8835;-87
2021/10/09 15:44:29;;;;;;;;;21.75;20.00;;;;;;;;5123274;27;9892;-88
2021/10/09 15:46:55;;;;;;;;;22.33;22.33;;;;;;;;5122837;27;8907;-92
2021/10/09 15:49:24;;;;;;;;;25.67;25.67;;;;;;;;5119983;28;8791;-84
2021/10/09 15:51:49;;;;;;;;;23.50;22.25;;;;;;;;5128175;27;8749;-83
2021/10/09 15:54:15;;;;;;;;;25.00;23.67;;;;;;;;5141164;27;8824;-81
2021/10/09 15:56:40;;;;;;;;;24.67;22.67;;;;;;;;5141252;27;8922;-78
2021/10/09 15:59:05;;;;;;;;;26.00;22.00;;;;;;;;5143253;27;9532;-79
2021/10/09 16:01:30;;;;;;;;;24.33;24.33;;;;;;;;5141049;27;8788;-80
2021/10/09 16:03:56;;;;;;;;;27.00;26.33;;;;;;;;5141898;27;8834;-84
2021/10/09 16:06:21;;;;;;;;;29.67;28.33;;;;;;;;5142143;27;9516;-87
2021/10/09 16:08:47;;;;;;;;;24.00;24.00;;;;;;;;5140788;27;8812;-78
2021/10/09 16:11:12;;;;;;;;;26.00;24.33;;;;;;;;5141901;27;8784;-78
2021/10/09 16:13:37;;;;;;;;;22.67;21.67;;;;;;;;5141227;27;8804;-77
2021/10/09 16:16:03;;;;;;;;;27.00;27.00;;;;;;;;5142032;27;8827;-77
2021/10/09 16:18:28;;;;;;;;;26.00;25.33;;;;;;;;5139043;27;8829;-78
2021/10/09 16:20:53;;;;;;;;;25.00;22.67;;;;;;;;5136729;27;8901;-76
2021/10/09 16:23:19;;;;;;;;;27.33;27.00;;;;;;;;5132499;27;8858;-76
2021/10/09 16:25:44;;;;;;;;;27.67;25.00;;;;;;;;5138105;27;8823;-81
2021/10/09 16:28:09;;;;;;;;;30.67;29.00;;;;;;;;5144433;27;8811;-78
2021/10/09 16:30:34;;;;;;;;;26.67;25.67;;;;;;;;5143224;27;8854;-80
2021/10/09 16:33:00;;;;;;;;;29.33;27.00;;;;;;;;5131693;27;8803;-78
2021/10/09 16:35:26;;;;;;;;;22.00;22.00;;;;;;;;5132832;27;8915;-79
2021/10/09 16:37:51;;;;;;;;;27.67;27.00;;;;;;;;5136547;27;8823;-80
2021/10/09 16:40:16;;;;;;;;;27.33;27.00;;;;;;;;5134930;27;8820;-80
2021/10/09 16:42:41;;;;;;;;;27.67;27.00;;;;;;;;5145366;27;8915;-79
2021/10/09 16:45:07;;;;;;;;;29.00;28.33;;;;;;;;5146276;27;8800;-82
2021/10/09 16:47:32;;;;;;;;;29.67;28.33;;;;;;;;5155574;27;8793;-79
2021/10/09 16:49:57;;;;;;;;;31.00;30.33;;;;;;;;5154369;27;8788;-78
2021/10/09 16:52:22;;;;;;;;;30.00;28.67;;;;;;;;5156748;27;8849;-78
2021/10/09 16:54:47;;;;;;;;;31.33;30.33;;;;;;;;5145185;27;8989;-81
2021/10/09 16:57:13;;;;;;;;;34.33;31.67;;;;;;;;5137433;27;8807;-80
2021/10/09 16:59:38;;;;;;;;;27.33;27.00;;;;;;;;5136165;27;8927;-81
2021/10/09 17:02:06;;;;;;;;;33.67;30.33;;;;;;;;5137642;27;8860;-80
2021/10/09 17:04:31;;;;;;;;;35.00;31.00;;;;;;;;5139117;27;8799;-83
2021/10/09 17:06:57;;;;;;;;;33.67;31.33;;;;;;;;5142536;27;8895;-83
2021/10/09 17:09:22;;;;;;;;;32.33;30.67;;;;;;;;5145132;27;8813;-82
2021/10/09 17:11:48;;;;;;;;;37.67;33.67;;;;;;;;5125772;27;8872;-80
2021/10/09 17:14:13;;;;;;;;;43.33;37.33;;;;;;;;5121160;27;8829;-83